Time;durP1;ratioP1;P1;durP2;ratioP2;P2;SDS_P1;SDS_P2;PMS_P1;PMS_P2;Temp;Humidity;BMP_temperature;BMP_pressure;BME280_temperature;BME280_humidity;BME280_pressure;Samples;Min_cycle;Max_cycle;Signal;HPM_P1;HPM_P2
2023/11/18 00:00:25;;;;;;;133.17;15.20;;;2.30;99.90;;;;;;2077755;28;20659;-64
2023/11/18 00:01:32;;;;;;;124.38;13.68;;;2.30;99.90;;;;;;2083743;28;20313;-65
2023/11/18 00:02:33;;;;;;;55.42;8.98;;;2.20;99.90;;;;;;2091724;28;20253;-66
2023/11/18 00:03:34;;;;;;;51.80;9.40;;;2.10;99.90;;;;;;2092157;28;20683;-65
2023/11/18 00:04:35;;;;;;;27.70;6.88;;;2.10;99.90;;;;;;2092149;28;20300;-65
2023/11/18 00:05:36;;;;;;;16.80;6.60;;;2.10;99.90;;;;;;2091931;28;20227;-65
2023/11/18 00:06:36;;;;;;;23.30;7.03;;;2.10;99.90;;;;;;2091091;28;20416;-64
2023/11/18 00:07:38;;;;;;;13.73;5.40;;;2.10;99.90;;;;;;2089344;28;20736;-65
2023/11/18 00:08:39;;;;;;;39.72;8.60;;;2.10;99.90;;;;;;2088597;28;20241;-65
2023/11/18 00:09:40;;;;;;;15.25;6.13;;;2.10;99.90;;;;;;2080313;28;20304;-65
2023/11/18 00:10:41;;;;;;;16.33;4.55;;;2.10;99.90;;;;;;2091962;28;20224;-65
2023/11/18 00:11:42;;;;;;;27.90;5.43;;;2.00;99.90;;;;;;2092821;28;20262;-66
2023/11/18 00:12:43;;;;;;;20.25;4.38;;;2.10;99.90;;;;;;2095189;28;20241;-65
2023/11/18 00:13:43;;;;;;;69.97;9.87;;;2.10;99.90;;;;;;2096076;28;20229;-66
2023/11/18 00:14:45;;;;;;;87.20;12.23;;;2.00;99.90;;;;;;2096177;28;20217;-65
2023/11/18 00:15:47;;;;;;;121.03;14.98;;;2.00;99.90;;;;;;2079847;28;20254;-66
2023/11/18 00:16:48;;;;;;;82.10;12.40;;;2.00;99.90;;;;;;2075035;28;20221;-66
2023/11/18 00:17:49;;;;;;;79.90;8.73;;;1.90;99.90;;;;;;2088359;28;20230;-66
2023/11/18 00:18:50;;;;;;;28.60;4.20;;;2.00;99.90;;;;;;2080849;28;20231;-65
2023/11/18 00:19:50;;;;;;;46.40;6.10;;;2.00;99.90;;;;;;2067671;28;20324;-66
2023/11/18 00:20:51;;;;;;;109.43;12.50;;;1.90;99.90;;;;;;2074374;28;20638;-66
2023/11/18 00:21:52;;;;;;;21.73;4.43;;;1.90;99.90;;;;;;2074011;28;20236;-65
2023/11/18 00:22:55;;;;;;;12.87;4.13;;;1.90;99.90;;;;;;2079656;28;20230;-66
2023/11/18 00:23:58;;;;;;;34.97;7.22;;;1.90;99.90;;;;;;2093523;28;20230;-67
2023/11/18 00:24:59;;;;;;;59.78;8.30;;;1.80;99.90;;;;;;2080436;28;20709;-65
2023/11/18 00:25:59;;;;;;;26.27;5.60;;;1.80;99.90;;;;;;2073117;28;20201;-67
2023/11/18 00:27:05;;;;;;;55.87;10.60;;;1.80;99.90;;;;;;2083668;28;20632;-66
2023/11/18 00:28:09;;;;;;;39.58;7.43;;;1.80;99.90;;;;;;2084984;28;20207;-66
2023/11/18 00:29:10;;;;;;;82.47;12.60;;;1.80;99.90;;;;;;2085133;28;20230;-66
2023/11/18 00:30:12;;;;;;;184.55;21.08;;;1.80;99.90;;;;;;2090669;28;20194;-66
2023/11/18 00:31:12;;;;;;;353.38;31.17;;;1.80;99.90;;;;;;2093514;28;20206;-66
2023/11/18 00:32:13;;;;;;;330.43;32.97;;;1.80;99.90;;;;;;2081666;28;20199;-66
2023/11/18 00:33:14;;;;;;;308.57;29.53;;;1.80;99.90;;;;;;2075325;28;20297;-66
2023/11/18 00:34:14;;;;;;;358.40;29.90;;;1.80;99.90;;;;;;2079804;28;20241;-67
2023/11/18 00:35:15;;;;;;;227.13;18.83;;;1.80;99.90;;;;;;2079888;28;20330;-67
2023/11/18 00:36:16;;;;;;;205.43;19.20;;;1.80;99.90;;;;;;2078838;28;20336;-67
2023/11/18 00:37:17;;;;;;;216.97;20.30;;;1.80;99.90;;;;;;2071180;28;20240;-67
2023/11/18 00:38:17;;;;;;;157.02;12.80;;;1.90;99.90;;;;;;2082648;28;20307;-67
2023/11/18 00:39:20;;;;;;;194.57;17.30;;;1.90;99.90;;;;;;2085976;28;20222;-66
2023/11/18 00:40:21;;;;;;;214.02;14.65;;;1.90;99.90;;;;;;2076680;28;20589;-66
2023/11/18 00:41:22;;;;;;;215.87;16.63;;;1.90;99.90;;;;;;2080267;28;20286;-67
2023/11/18 00:42:23;;;;;;;243.82;22.75;;;1.90;99.90;;;;;;2075666;28;20228;-66
2023/11/18 00:43:24;;;;;;;176.60;15.53;;;1.90;99.90;;;;;;2082981;28;20227;-67
2023/11/18 00:44:24;;;;;;;168.90;14.57;;;1.90;99.90;;;;;;2083137;28;20224;-66
2023/11/18 00:45:25;;;;;;;260.37;23.43;;;1.90;99.90;;;;;;2083555;28;20231;-66
2023/11/18 00:46:26;;;;;;;52.30;7.90;;;1.90;99.90;;;;;;2081813;28;20232;-67
2023/11/18 00:47:27;;;;;;;58.40;8.10;;;1.90;99.90;;;;;;2081383;28;20234;-67
2023/11/18 00:48:28;;;;;;;33.00;6.43;;;1.90;99.90;;;;;;2083817;28;20426;-66
2023/11/18 00:49:28;;;;;;;9.55;4.03;;;1.90;99.90;;;;;;2083950;28;20227;-66
2023/11/18 00:50:29;;;;;;;6.77;4.10;;;1.90;99.90;;;;;;2083657;28;20246;-66
2023/11/18 00:51:30;;;;;;;8.40;4.17;;;1.90;99.90;;;;;;2083611;28;20221;-66
2023/11/18 00:52:30;;;;;;;8.17;5.00;;;1.90;99.90;;;;;;2089787;28;20605;-66
2023/11/18 00:53:31;;;;;;;6.27;4.83;;;1.90;99.90;;;;;;2087403;28;20226;-66
2023/11/18 00:54:32;;;;;;;6.47;4.47;;;2.00;99.90;;;;;;2087333;28;20222;-66
2023/11/18 00:55:33;;;;;;;8.00;4.45;;;2.00;99.90;;;;;;2094357;28;20300;-66
2023/11/18 00:56:34;;;;;;;6.07;3.90;;;2.00;99.90;;;;;;2090172;28;20643;-66
2023/11/18 00:57:35;;;;;;;5.43;3.63;;;2.10;99.90;;;;;;2079656;28;20219;-66
2023/11/18 00:58:39;;;;;;;5.05;3.50;;;2.10;99.90;;;;;;2090843;28;20225;-66
2023/11/18 00:59:43;;;;;;;7.95;4.18;;;2.20;99.90;;;;;;2088768;28;20678;-66
2023/11/18 01:00:45;;;;;;;9.38;3.72;;;2.10;99.90;;;;;;2090479;28;20266;-66
2023/11/18 01:01:45;;;;;;;6.32;3.70;;;2.10;99.90;;;;;;2083583;28;20242;-66
2023/11/18 01:02:48;;;;;;;12.30;4.30;;;2.10;99.90;;;;;;2086246;28;20239;-66
2023/11/18 01:03:49;;;;;;;11.40;5.03;;;2.00;99.90;;;;;;2087724;28;20226;-66
2023/11/18 01:04:50;;;;;;;35.27;6.83;;;2.00;99.90;;;;;;2094906;28;20482;-66
2023/11/18 01:05:50;;;;;;;77.50;9.63;;;2.00;99.90;;;;;;2087948;28;20238;-66
2023/11/18 01:06:51;;;;;;;72.20;6.90;;;1.90;99.90;;;;;;2086505;28;20763;-66
2023/11/18 01:07:52;;;;;;;58.30;7.50;;;1.90;99.90;;;;;;2066681;28;20261;-66
2023/11/18 01:08:53;;;;;;;126.93;11.67;;;1.90;99.90;;;;;;2065288;28;20264;-66
2023/11/18 01:09:53;;;;;;;62.20;6.83;;;1.80;99.90;;;;;;2089582;28;20279;-66
2023/11/18 01:10:54;;;;;;;99.17;11.53;;;1.90;99.90;;;;;;2081327;28;20224;-66
2023/11/18 01:11:55;;;;;;;74.43;8.70;;;1.90;99.90;;;;;;2087490;28;20753;-67
2023/11/18 01:12:57;;;;;;;94.97;10.10;;;1.90;99.90;;;;;;2096235;28;20222;-67
2023/11/18 01:13:58;;;;;;;97.03;11.95;;;2.00;99.90;;;;;;2087851;28;20687;-67
2023/11/18 01:14:59;;;;;;;70.03;10.97;;;2.00;99.90;;;;;;2090246;28;20233;-67
2023/11/18 01:16:00;;;;;;;64.38;9.90;;;2.00;99.90;;;;;;2083112;28;20183;-66
2023/11/18 01:17:00;;;;;;;111.43;15.80;;;1.90;99.90;;;;;;2097023;28;20186;-67
2023/11/18 01:18:02;;;;;;;94.57;10.40;;;1.90;99.90;;;;;;2089399;28;20191;-66
2023/11/18 01:19:02;;;;;;;35.33;5.93;;;2.00;99.90;;;;;;2089018;28;20212;-67
2023/11/18 01:20:09;;;;;;;87.83;10.73;;;2.00;99.90;;;;;;2083502;28;20256;-66
2023/11/18 01:21:10;;;;;;;36.60;8.93;;;1.90;99.90;;;;;;2078600;28;20746;-66
2023/11/18 01:22:11;;;;;;;24.03;5.97;;;1.90;99.90;;;;;;2077827;28;20210;-66
2023/11/18 01:23:12;;;;;;;13.13;5.55;;;1.90;99.90;;;;;;2078021;28;20187;-66
2023/11/18 01:24:13;;;;;;;7.03;4.00;;;1.90;99.90;;;;;;2078778;28;20269;-66
2023/11/18 01:25:18;;;;;;;10.25;5.28;;;2.00;99.90;;;;;;2080708;28;20582;-66
2023/11/18 01:26:19;;;;;;;5.63;3.65;;;2.00;99.90;;;;;;2077623;28;20289;-66
2023/11/18 01:27:20;;;;;;;6.00;3.63;;;2.00;99.90;;;;;;2079919;28;20680;-66
2023/11/18 01:28:22;;;;;;;7.55;4.50;;;2.00;99.90;;;;;;2083152;28;20235;-66
2023/11/18 01:29:22;;;;;;;7.97;4.60;;;2.00;99.90;;;;;;2091848;28;20235;-66
2023/11/18 01:30:23;;;;;;;7.00;4.10;;;2.10;99.90;;;;;;2088695;28;20246;-67
2023/11/18 01:31:24;;;;;;;6.27;4.20;;;2.10;99.90;;;;;;2087082;28;20233;-66
2023/11/18 01:32:25;;;;;;;6.43;4.37;;;2.10;99.90;;;;;;2087129;28;20853;-66
2023/11/18 01:33:26;;;;;;;6.80;3.80;;;2.20;99.90;;;;;;2084057;28;20612;-66
2023/11/18 01:34:27;;;;;;;4.57;3.60;;;2.20;99.90;;;;;;2087408;28;20222;-66
2023/11/18 01:35:28;;;;;;;6.57;3.53;;;2.20;99.90;;;;;;2079745;28;20220;-65
2023/11/18 01:36:30;;;;;;;4.53;2.80;;;2.10;99.90;;;;;;2090630;28;20223;-66
2023/11/18 01:37:31;;;;;;;3.90;3.03;;;2.10;99.90;;;;;;2091113;28;20324;-66
2023/11/18 01:38:32;;;;;;;4.18;2.70;;;2.10;99.90;;;;;;2090084;28;20218;-65
2023/11/18 01:39:36;;;;;;;3.47;2.70;;;2.00;99.90;;;;;;2085118;28;20483;-66
2023/11/18 01:40:37;;;;;;;4.50;2.58;;;2.00;99.90;;;;;;2065531;28;20221;-66
2023/11/18 01:41:37;;;;;;;3.20;2.73;;;2.00;99.90;;;;;;2070649;28;20310;-67
2023/11/18 01:42:41;;;;;;;4.00;2.77;;;2.00;99.90;;;;;;2086142;28;20229;-66
2023/11/18 01:43:46;;;;;;;3.85;2.53;;;2.10;99.90;;;;;;2081675;28;20220;-66
2023/11/18 01:44:47;;;;;;;6.05;2.78;;;2.00;99.90;;;;;;2078262;28;20502;-66
2023/11/18 01:45:48;;;;;;;3.30;2.60;;;2.10;99.90;;;;;;2078889;28;20248;-66
2023/11/18 01:46:49;;;;;;;3.67;2.47;;;2.00;99.90;;;;;;2078607;28;20395;-66
2023/11/18 01:47:50;;;;;;;2.60;2.33;;;2.00;99.90;;;;;;2087143;28;20683;-66
2023/11/18 01:48:52;;;;;;;2.90;2.33;;;2.00;99.90;;;;;;2080502;28;20327;-66
2023/11/18 01:49:53;;;;;;;3.50;2.30;;;2.10;99.90;;;;;;2077621;28;20223;-66
2023/11/18 01:50:58;;;;;;;4.40;2.42;;;2.10;99.90;;;;;;2093954;28;20230;-66
2023/11/18 01:52:01;;;;;;;3.65;2.40;;;2.10;99.90;;;;;;2090380;28;20212;-67
2023/11/18 01:53:02;;;;;;;3.97;2.50;;;2.10;99.90;;;;;;2095358;28;20181;-67
2023/11/18 01:54:05;;;;;;;4.83;2.93;;;2.10;99.90;;;;;;2090114;28;20207;-66
2023/11/18 01:55:06;;;;;;;4.97;2.65;;;2.20;99.90;;;;;;2089888;28;20179;-66
2023/11/18 01:56:08;;;;;;;3.38;2.90;;;2.10;99.90;;;;;;2090768;28;20180;-66
2023/11/18 01:57:09;;;;;;;2.80;2.58;;;2.10;99.90;;;;;;2083154;28;20351;-66
2023/11/18 01:58:10;;;;;;;2.83;2.10;;;2.10;99.90;;;;;;2089342;28;20208;-66
2023/11/18 01:59:17;;;;;;;4.00;2.50;;;2.10;99.90;;;;;;2095146;28;20458;-66
2023/11/18 02:00:18;;;;;;;3.67;2.58;;;2.00;99.90;;;;;;2084030;28;20254;-66
2023/11/18 02:01:20;;;;;;;3.83;2.60;;;2.00;99.90;;;;;;2074350;28;20617;-66
2023/11/18 02:02:21;;;;;;;4.80;2.95;;;2.00;99.90;;;;;;2080340;28;20246;-66
2023/11/18 02:03:21;;;;;;;3.80;2.67;;;2.00;99.90;;;;;;2079772;28;20318;-66
2023/11/18 02:04:22;;;;;;;4.73;3.00;;;1.90;99.90;;;;;;2080301;28;20252;-66
2023/11/18 02:05:23;;;;;;;3.73;2.70;;;1.90;99.90;;;;;;2087456;28;20234;-66
2023/11/18 02:06:23;;;;;;;4.47;3.00;;;1.90;99.90;;;;;;2078229;28;20222;-66
2023/11/18 02:07:24;;;;;;;3.40;2.90;;;1.90;99.90;;;;;;2087303;28;20251;-66
2023/11/18 02:08:27;;;;;;;3.73;2.70;;;1.90;99.90;;;;;;2094399;28;20692;-66
2023/11/18 02:09:28;;;;;;;3.10;2.47;;;1.90;99.90;;;;;;2078313;28;20242;-66
2023/11/18 02:10:29;;;;;;;4.50;3.08;;;1.90;99.90;;;;;;2077940;28;20255;-66
2023/11/18 02:11:53;;;;;;;4.23;2.93;;;1.90;99.90;;;;;;2066967;28;20247;-66
2023/11/18 02:13:09;;;;;;;4.10;2.80;;;1.90;99.90;;;;;;2075056;28;20613;-66
2023/11/18 02:14:16;;;;;;;4.57;3.10;;;1.90;99.90;;;;;;2085430;28;20229;-66
2023/11/18 02:15:18;;;;;;;3.72;2.70;;;1.90;99.90;;;;;;2071379;28;20241;-66
2023/11/18 02:16:21;;;;;;;4.53;2.92;;;1.80;99.90;;;;;;2062428;28;20225;-66
2023/11/18 02:17:24;;;;;;;4.72;3.20;;;1.70;99.90;;;;;;2074932;28;20744;-66
2023/11/18 02:18:26;;;;;;;4.63;2.80;;;1.70;99.90;;;;;;2082152;28;20223;-66
2023/11/18 02:19:29;;;;;;;3.90;2.70;;;1.70;99.90;;;;;;2086506;28;20281;-66
2023/11/18 02:20:31;;;;;;;3.42;2.83;;;1.70;99.90;;;;;;2084866;28;20316;-66
2023/11/18 02:21:33;;;;;;;3.15;2.85;;;1.80;99.90;;;;;;2086680;28;20220;-66
2023/11/18 02:22:34;;;;;;;3.90;2.80;;;1.70;99.90;;;;;;2086296;28;20653;-66
2023/11/18 02:23:35;;;;;;;4.03;3.17;;;1.80;99.90;;;;;;2086391;28;20223;-66
2023/11/18 02:24:40;;;;;;;3.47;2.30;;;1.80;99.90;;;;;;2092526;28;20305;-66
2023/11/18 02:25:46;;;;;;;4.40;2.80;;;1.70;99.90;;;;;;2089556;28;20226;-66
2023/11/18 02:26:47;;;;;;;3.40;2.50;;;1.70;99.90;;;;;;2088940;28;20281;-66
2023/11/18 02:27:48;;;;;;;4.23;2.93;;;1.70;99.90;;;;;;2071884;28;20804;-66
2023/11/18 02:28:49;;;;;;;5.07;3.47;;;1.70;99.90;;;;;;2079649;28;20224;-66
2023/11/18 02:29:51;;;;;;;5.65;3.42;;;1.70;99.90;;;;;;2086886;28;20228;-66
2023/11/18 02:31:10;;;;;;;4.20;3.10;;;1.70;99.90;;;;;;2085949;28;20226;-67
2023/11/18 02:32:22;;;;;;;5.60;3.70;;;1.70;99.90;;;;;;2077426;28;20222;-66
2023/11/18 02:33:40;;;;;;;4.43;3.10;;;1.70;99.90;;;;;;2074833;28;20249;-66
2023/11/18 02:34:48;;;;;;;5.15;3.40;;;1.60;99.90;;;;;;2089666;28;20640;-66
2023/11/18 02:35:58;;;;;;;4.72;2.85;;;1.60;99.90;;;;;;2080093;28;20217;-66
2023/11/18 02:37:00;;;;;;;3.92;2.78;;;1.60;99.90;;;;;;2079149;28;20294;-66
2023/11/18 02:38:02;;;;;;;3.72;2.80;;;1.50;99.90;;;;;;2085945;28;20184;-66
2023/11/18 02:39:10;;;;;;;6.07;3.30;;;1.60;99.90;;;;;;2083174;28;20628;-66
2023/11/18 02:40:17;;;;;;;3.00;2.67;;;1.60;99.90;;;;;;2088867;28;20214;-66
2023/11/18 02:41:20;;;;;;;4.93;2.90;;;1.50;99.90;;;;;;2078366;28;20952;-66
2023/11/18 02:42:22;;;;;;;4.57;3.80;;;1.50;99.90;;;;;;2079712;28;20291;-66
2023/11/18 02:43:25;;;;;;;5.68;3.20;;;1.50;99.90;;;;;;2084246;28;20275;-66
2023/11/18 02:44:29;;;;;;;3.72;2.90;;;1.50;99.90;;;;;;2089839;28;20229;-66
2023/11/18 02:45:32;;;;;;;5.45;3.30;;;1.50;99.90;;;;;;2091954;28;20571;-66
2023/11/18 02:46:33;;;;;;;4.50;3.25;;;1.50;99.90;;;;;;2083493;28;20230;-66
2023/11/18 02:47:34;;;;;;;4.95;3.60;;;1.50;99.90;;;;;;2080011;28;20232;-66
2023/11/18 02:48:38;;;;;;;6.20;3.33;;;1.50;99.90;;;;;;2074421;28;20264;-66
2023/11/18 02:49:39;;;;;;;3.80;3.10;;;1.40;99.90;;;;;;2090287;28;20266;-65
2023/11/18 02:50:42;;;;;;;5.93;3.28;;;1.40;99.90;;;;;;2094585;28;20250;-66
2023/11/18 02:51:45;;;;;;;5.20;3.08;;;1.40;99.90;;;;;;2090932;28;20714;-66
2023/11/18 02:52:46;;;;;;;4.82;3.17;;;1.50;99.90;;;;;;2088695;28;20248;-66
2023/11/18 02:53:46;;;;;;;5.07;3.40;;;1.50;99.90;;;;;;2089115;28;20249;-66
2023/11/18 02:54:47;;;;;;;4.57;3.33;;;1.50;99.90;;;;;;2099997;28;20751;-66
2023/11/18 02:55:48;;;;;;;4.93;3.20;;;1.50;99.90;;;;;;2100251;28;20225;-66
2023/11/18 02:56:49;;;;;;;4.63;3.07;;;1.40;99.90;;;;;;2091013;28;20227;-66
2023/11/18 02:57:51;;;;;;;4.80;3.40;;;1.40;99.90;;;;;;2089675;28;20231;-66
2023/11/18 02:58:52;;;;;;;4.50;3.03;;;1.30;99.90;;;;;;2092828;28;20226;-66
2023/11/18 02:59:52;;;;;;;5.40;3.43;;;1.40;99.90;;;;;;2089721;28;20698;-66
2023/11/18 03:00:53;;;;;;;6.27;3.90;;;1.40;99.90;;;;;;2088855;28;20241;-66
2023/11/18 03:01:54;;;;;;;3.43;2.60;;;1.30;99.90;;;;;;2082966;28;20325;-66
2023/11/18 03:02:55;;;;;;;4.15;3.03;;;1.30;99.90;;;;;;2074429;28;20579;-67
2023/11/18 03:03:56;;;;;;;4.43;3.13;;;1.40;99.90;;;;;;2079807;28;20292;-67
2023/11/18 03:04:58;;;;;;;3.90;2.87;;;1.40;99.90;;;;;;2087763;28;20201;-66
2023/11/18 03:05:59;;;;;;;3.92;2.70;;;1.40;99.90;;;;;;2079943;28;20197;-66
2023/11/18 03:07:00;;;;;;;4.25;3.08;;;1.40;99.90;;;;;;2078877;28;20687;-66
2023/11/18 03:08:01;;;;;;;4.93;3.30;;;1.40;99.90;;;;;;2072564;28;20200;-66
2023/11/18 03:09:06;;;;;;;3.63;2.90;;;1.40;99.90;;;;;;2083767;28;20827;-66
2023/11/18 03:10:13;;;;;;;5.28;3.50;;;1.40;99.90;;;;;;2087574;28;20190;-66
2023/11/18 03:11:17;;;;;;;4.97;3.45;;;1.40;99.90;;;;;;2081458;28;20248;-66
2023/11/18 03:12:18;;;;;;;5.53;3.20;;;1.40;99.90;;;;;;2087892;28;20228;-67
2023/11/18 03:13:18;;;;;;;5.20;3.93;;;1.40;99.90;;;;;;2074655;28;20775;-66
2023/11/18 03:14:19;;;;;;;4.33;3.17;;;1.40;99.90;;;;;;2083954;28;20233;-66
2023/11/18 03:15:22;;;;;;;3.70;3.07;;;1.40;99.90;;;;;;2085431;28;20251;-66
2023/11/18 03:16:24;;;;;;;5.65;3.28;;;1.40;99.90;;;;;;2081020;28;20221;-66
2023/11/18 03:17:25;;;;;;;5.25;3.47;;;1.40;99.90;;;;;;2074571;28;20229;-66
2023/11/18 03:18:25;;;;;;;4.53;3.40;;;1.50;99.90;;;;;;2082687;28;20217;-66
2023/11/18 03:19:26;;;;;;;3.80;3.00;;;1.50;99.90;;;;;;2076495;28;20240;-66
2023/11/18 03:20:28;;;;;;;5.53;3.40;;;1.50;99.90;;;;;;2086373;28;20274;-66
2023/11/18 03:21:29;;;;;;;6.13;3.80;;;1.40;99.90;;;;;;2083853;28;20316;-66
2023/11/18 03:22:30;;;;;;;5.20;3.67;;;1.50;99.90;;;;;;2080329;28;20750;-66
2023/11/18 03:23:32;;;;;;;5.63;3.85;;;1.50;99.90;;;;;;2080184;28;20218;-66
2023/11/18 03:24:33;;;;;;;3.92;3.10;;;1.50;99.90;;;;;;2080021;28;20231;-66
2023/11/18 03:25:33;;;;;;;5.90;3.40;;;1.50;99.90;;;;;;2076919;28;20590;-66
2023/11/18 03:26:34;;;;;;;7.47;3.40;;;1.50;99.90;;;;;;2080384;28;20214;-66
2023/11/18 03:27:35;;;;;;;4.53;3.33;;;1.50;99.90;;;;;;2092901;28;20227;-66
2023/11/18 03:28:36;;;;;;;5.77;3.50;;;1.50;99.90;;;;;;2089850;28;20245;-66
2023/11/18 03:29:39;;;;;;;3.78;2.80;;;1.50;99.90;;;;;;2092838;28;20221;-66
2023/11/18 03:30:41;;;;;;;5.75;3.50;;;1.50;99.90;;;;;;2090577;28;20745;-66
2023/11/18 03:31:44;;;;;;;4.70;3.25;;;1.50;99.90;;;;;;2084562;28;20655;-66
2023/11/18 03:32:45;;;;;;;7.32;4.13;;;1.50;99.90;;;;;;2091762;28;20313;-66
2023/11/18 03:33:45;;;;;;;6.20;3.83;;;1.40;99.90;;;;;;2083389;28;20632;-66
2023/11/18 03:34:46;;;;;;;5.83;3.87;;;1.40;99.90;;;;;;2079574;28;20277;-66
2023/11/18 03:35:48;;;;;;;9.10;5.00;;;1.40;99.90;;;;;;2086515;28;20222;-65
2023/11/18 03:36:48;;;;;;;6.95;4.38;;;1.40;99.90;;;;;;2086755;28;20219;-66
2023/11/18 03:37:49;;;;;;;4.87;3.43;;;1.40;99.90;;;;;;2094548;28;20237;-66
2023/11/18 03:38:50;;;;;;;7.97;3.83;;;1.40;99.90;;;;;;2086616;28;20405;-66
2023/11/18 03:39:51;;;;;;;4.20;3.40;;;1.40;99.90;;;;;;2092098;28;20611;-66
2023/11/18 03:40:52;;;;;;;6.27;3.60;;;1.30;99.90;;;;;;2081627;28;20245;-65
2023/11/18 03:41:52;;;;;;;6.03;4.00;;;1.40;99.90;;;;;;2084310;28;20308;-65
2023/11/18 03:42:53;;;;;;;6.60;3.70;;;1.30;99.90;;;;;;2081438;28;20284;-65
2023/11/18 03:43:54;;;;;;;6.67;3.80;;;1.20;99.90;;;;;;2082098;28;20650;-66
2023/11/18 03:44:55;;;;;;;5.87;3.80;;;1.20;99.90;;;;;;2077371;28;20483;-66
2023/11/18 03:45:56;;;;;;;5.00;3.33;;;1.20;99.90;;;;;;2079114;28;20195;-67
2023/11/18 03:46:57;;;;;;;6.15;3.70;;;1.30;99.90;;;;;;2079338;28;20186;-67
2023/11/18 03:47:57;;;;;;;5.13;3.43;;;1.30;99.90;;;;;;2080060;28;20276;-66
2023/11/18 03:48:58;;;;;;;6.50;3.90;;;1.30;99.90;;;;;;2090812;28;20216;-66
2023/11/18 03:49:59;;;;;;;6.17;3.63;;;1.30;99.90;;;;;;2082709;28;20183;-66
2023/11/18 03:51:01;;;;;;;5.00;3.43;;;1.30;99.90;;;;;;2081536;28;20499;-66
2023/11/18 03:52:01;;;;;;;7.40;3.92;;;1.40;99.90;;;;;;2084789;28;20179;-66
2023/11/18 03:53:03;;;;;;;5.20;3.27;;;1.40;99.90;;;;;;2080792;28;20193;-66
2023/11/18 03:54:04;;;;;;;4.25;3.25;;;1.30;99.90;;;;;;2086240;28;20244;-67
2023/11/18 03:55:05;;;;;;;5.40;3.10;;;1.30;99.90;;;;;;2073963;28;20190;-66
2023/11/18 03:56:07;;;;;;;5.60;3.28;;;1.30;99.90;;;;;;2079051;28;20183;-66
2023/11/18 03:57:07;;;;;;;6.57;3.65;;;1.40;99.90;;;;;;2082732;28;20241;-66
2023/11/18 03:58:08;;;;;;;4.70;3.33;;;1.40;99.90;;;;;;2082822;28;20213;-66
2023/11/18 03:59:10;;;;;;;4.65;2.80;;;1.50;99.90;;;;;;2083156;28;20734;-66
2023/11/18 04:00:11;;;;;;;4.80;3.30;;;1.50;99.90;;;;;;2082614;28;20220;-66
2023/11/18 04:01:23;;;;;;;3.67;3.05;;;1.50;99.90;;;;;;2083224;28;20215;-66
2023/11/18 04:02:24;;;;;;;5.57;3.53;;;1.50;99.90;;;;;;2084034;28;20239;-66
2023/11/18 04:03:25;;;;;;;6.15;3.80;;;1.50;99.90;;;;;;2087452;28;20230;-66
2023/11/18 04:04:26;;;;;;;4.80;3.47;;;1.50;99.90;;;;;;2086211;28;20307;-66
2023/11/18 04:05:26;;;;;;;3.70;3.27;;;1.60;99.90;;;;;;2090004;28;20710;-66
2023/11/18 04:06:27;;;;;;;4.60;3.30;;;1.50;99.90;;;;;;2090024;28;20761;-66
2023/11/18 04:07:28;;;;;;;6.40;3.00;;;1.50;99.90;;;;;;2089795;28;20670;-66
2023/11/18 04:08:29;;;;;;;3.95;3.28;;;1.50;99.90;;;;;;2079118;28;20257;-66
2023/11/18 04:09:30;;;;;;;4.63;3.07;;;1.40;99.90;;;;;;2080357;28;20228;-66
2023/11/18 04:10:31;;;;;;;3.80;2.95;;;1.50;99.90;;;;;;2091414;28;20236;-66
2023/11/18 04:11:32;;;;;;;3.57;2.70;;;1.50;99.90;;;;;;2092041;28;20697;-66
2023/11/18 04:12:32;;;;;;;4.63;3.07;;;1.50;99.90;;;;;;2090495;28;20236;-66
2023/11/18 04:13:33;;;;;;;4.13;3.23;;;1.50;99.90;;;;;;2085323;28;20273;-66
2023/11/18 04:14:34;;;;;;;4.10;3.07;;;1.50;99.90;;;;;;2072851;28;20282;-66
2023/11/18 04:15:35;;;;;;;3.83;2.70;;;1.50;99.90;;;;;;2074959;28;20633;-66
2023/11/18 04:16:37;;;;;;;6.40;3.05;;;1.50;99.90;;;;;;2081838;28;20239;-66
2023/11/18 04:17:40;;;;;;;3.83;2.83;;;1.50;99.90;;;;;;2075449;28;20218;-66
2023/11/18 04:18:41;;;;;;;6.07;2.90;;;1.50;99.90;;;;;;2074686;28;20251;-66
2023/11/18 04:19:42;;;;;;;4.30;3.42;;;1.40;99.90;;;;;;2068809;28;20250;-66
2023/11/18 04:20:42;;;;;;;3.50;2.60;;;1.50;99.90;;;;;;2077038;28;20224;-66
2023/11/18 04:21:48;;;;;;;3.93;3.10;;;1.40;99.90;;;;;;2087135;28;20226;-66
2023/11/18 04:22:48;;;;;;;3.65;2.80;;;1.40;99.90;;;;;;2082399;28;20685;-66
2023/11/18 04:23:49;;;;;;;5.90;3.77;;;1.40;99.90;;;;;;2079827;28;20244;-66
2023/11/18 04:24:50;;;;;;;4.53;3.30;;;1.20;99.90;;;;;;2079693;28;20706;-66
2023/11/18 04:25:51;;;;;;;3.73;2.80;;;1.30;99.90;;;;;;2079162;28;20227;-66
2023/11/18 04:26:52;;;;;;;3.80;2.83;;;1.30;99.90;;;;;;2083241;28;20307;-66
2023/11/18 04:27:52;;;;;;;7.63;3.03;;;1.40;99.90;;;;;;2079100;28;20248;-66
2023/11/18 04:28:53;;;;;;;3.93;3.03;;;1.30;99.90;;;;;;2074226;28;20222;-66
2023/11/18 04:29:54;;;;;;;4.03;3.22;;;1.40;99.90;;;;;;2087245;28;20255;-66
2023/11/18 04:30:55;;;;;;;6.80;3.10;;;1.40;99.90;;;;;;2084618;28;20207;-66
2023/11/18 04:31:56;;;;;;;4.32;3.00;;;1.40;99.90;;;;;;2078851;28;20269;-66
2023/11/18 04:32:57;;;;;;;7.57;3.30;;;1.40;99.90;;;;;;2079561;28;20196;-66
2023/11/18 04:33:57;;;;;;;3.53;2.90;;;1.30;99.90;;;;;;2082710;28;20218;-66
2023/11/18 04:34:59;;;;;;;3.77;2.80;;;1.40;99.90;;;;;;2082835;28;20207;-66
2023/11/18 04:36:00;;;;;;;4.88;3.03;;;1.40;99.90;;;;;;2083376;28;20228;-65
2023/11/18 04:37:01;;;;;;;3.27;2.40;;;1.30;99.90;;;;;;2081281;28;20195;-66
2023/11/18 04:38:01;;;;;;;4.47;3.27;;;1.30;99.90;;;;;;2089743;28;20226;-66
2023/11/18 04:39:03;;;;;;;4.70;3.33;;;1.30;99.90;;;;;;2080975;28;20248;-65
2023/11/18 04:40:09;;;;;;;5.97;3.03;;;1.20;99.90;;;;;;2083034;28;20213;-66
2023/11/18 04:41:10;;;;;;;5.93;3.15;;;1.20;99.90;;;;;;2083130;28;20572;-65
2023/11/18 04:42:10;;;;;;;3.97;3.00;;;1.20;99.90;;;;;;2089354;28;20353;-65
2023/11/18 04:43:12;;;;;;;3.67;2.77;;;1.20;99.90;;;;;;2088600;28;20197;-66
2023/11/18 04:44:13;;;;;;;5.35;3.35;;;1.20;99.90;;;;;;2089565;28;20203;-66
2023/11/18 04:45:14;;;;;;;4.00;2.83;;;1.10;99.90;;;;;;2089963;28;20565;-65
2023/11/18 04:46:15;;;;;;;4.03;3.03;;;1.10;99.90;;;;;;2090800;28;20277;-66
2023/11/18 04:47:18;;;;;;;5.93;4.07;;;1.10;99.90;;;;;;2084431;28;20255;-65
2023/11/18 04:48:21;;;;;;;4.07;3.00;;;1.00;99.90;;;;;;2073541;28;20229;-66
2023/11/18 04:49:21;;;;;;;5.00;3.15;;;1.00;99.90;;;;;;2079302;28;20233;-65
2023/11/18 04:50:22;;;;;;;5.27;3.43;;;1.00;99.90;;;;;;2086407;28;20232;-66
2023/11/18 04:51:23;;;;;;;7.93;3.93;;;1.00;99.90;;;;;;2080473;28;20226;-66
2023/11/18 04:52:24;;;;;;;7.03;4.10;;;1.10;99.90;;;;;;2081079;28;20236;-66
2023/11/18 04:53:25;;;;;;;6.10;3.92;;;1.00;99.90;;;;;;2079563;28;20766;-66
2023/11/18 04:54:26;;;;;;;4.93;3.25;;;1.00;99.90;;;;;;2079350;28;20720;-66
2023/11/18 04:55:26;;;;;;;7.70;4.00;;;1.10;99.90;;;;;;2080360;28;20234;-66
2023/11/18 04:56:27;;;;;;;5.43;3.73;;;1.20;99.90;;;;;;2082402;28;20651;-66
2023/11/18 04:57:28;;;;;;;5.57;3.57;;;1.20;99.90;;;;;;2079596;28;20682;-66
2023/11/18 04:58:29;;;;;;;7.70;4.10;;;1.20;99.90;;;;;;2079863;28;20225;-66
2023/11/18 04:59:30;;;;;;;8.17;3.77;;;1.20;99.90;;;;;;2082040;28;20293;-66
2023/11/18 05:00:34;;;;;;;6.25;3.35;;;1.20;99.90;;;;;;2082196;28;20267;-67
2023/11/18 05:01:36;;;;;;;5.65;3.67;;;1.20;99.90;;;;;;2080513;28;20229;-65
2023/11/18 05:02:40;;;;;;;6.05;3.40;;;1.30;99.90;;;;;;2080042;28;20627;-66
2023/11/18 05:03:41;;;;;;;5.30;3.72;;;1.30;99.90;;;;;;2091867;28;20256;-66
2023/11/18 05:04:42;;;;;;;4.93;3.17;;;1.20;99.90;;;;;;2075993;28;20682;-65
2023/11/18 05:05:42;;;;;;;6.50;3.57;;;1.30;99.90;;;;;;2074736;28;20237;-67
2023/11/18 05:06:43;;;;;;;4.37;3.17;;;1.20;99.90;;;;;;2073546;28;20260;-66
2023/11/18 05:07:44;;;;;;;5.17;3.73;;;1.20;99.90;;;;;;2065487;28;20238;-66
2023/11/18 05:08:45;;;;;;;4.57;3.27;;;1.20;99.90;;;;;;2068853;28;20798;-66
2023/11/18 05:09:46;;;;;;;5.35;3.38;;;1.30;99.90;;;;;;2078831;28;20224;-65
2023/11/18 05:10:50;;;;;;;4.90;3.77;;;1.20;99.90;;;;;;2085991;28;20317;-65
2023/11/18 05:11:52;;;;;;;6.85;3.88;;;1.20;99.90;;;;;;2079054;28;20217;-66
2023/11/18 05:12:55;;;;;;;6.85;4.30;;;1.20;99.90;;;;;;2071104;28;20254;-66
2023/11/18 05:13:56;;;;;;;4.53;3.38;;;1.30;99.90;;;;;;2077911;28;20314;-66
2023/11/18 05:14:57;;;;;;;5.73;3.47;;;1.20;99.90;;;;;;2082847;28;20209;-67
2023/11/18 05:15:57;;;;;;;6.93;3.83;;;1.20;99.90;;;;;;2073577;28;20508;-67
2023/11/18 05:16:58;;;;;;;3.97;3.10;;;1.20;99.90;;;;;;2080977;28;20189;-66
2023/11/18 05:17:59;;;;;;;5.97;3.57;;;1.10;99.90;;;;;;2091993;28;20187;-66
2023/11/18 05:19:00;;;;;;;6.27;3.33;;;1.10;99.90;;;;;;2087819;28;20229;-66
2023/11/18 05:20:02;;;;;;;6.07;3.80;;;1.10;99.90;;;;;;2091483;28;20271;-66
2023/11/18 05:21:05;;;;;;;4.78;3.60;;;1.10;99.90;;;;;;2087507;28;20198;-66
2023/11/18 05:22:06;;;;;;;5.40;3.70;;;1.10;99.90;;;;;;2090929;28;20214;-67
2023/11/18 05:23:09;;;;;;;6.30;3.80;;;1.10;99.90;;;;;;2098368;28;20723;-67
2023/11/18 05:24:10;;;;;;;5.45;3.63;;;1.00;99.90;;;;;;2096775;28;20234;-67